Weather at London City Airport

Public forecast

Using degrees Celsius for public forecast. Weather courtesy of forecast.io.

Current aviation weather report (METAR) for London City Airport

2024/05/29 20:20 (retrieved 25 minutes ago)

EGLC 292020Z AUTO 28009KT 250V320 9999 NCD 17/10 Q1008

Closest aviation forecast (TAF) to London City Airport

Closest forecast is RAF Northolt, 17.9 nm (33.2 km) W.

2024/05/29 18:43 (retrieved 2 hours ago)

TAF EGWU 292041Z 2918/3012 CNL TAF EGWU 292040Z 2921/3015 CNL